Airport details for: LSZH (Switzerland)

Metar

LSZH 270820Z 17007KT 4500 -RADZ BR SCT007 BKN015 15/13 Q1015 TEMPO 5000

General details

ICAO: LSZH
IATA: ZRH
Name (city): Zurich
Major:
Country: Switzerland
vACC: vACC Switzerland
Description:
Scenery links:
FS9 scenery:
FSX/P3D scenery: Download
XP scenery: Download
Elevation: 1417 ft.
Transition altitude: 7000 ft.
MSA: 12100 ft.
Latitude: 47.458056
Longitude: 8.548056
LSZH Charts
LSZH Notams
LSZH Online stations

Runways

Number Course Length Elevation Lat Lon ILS ILS freq ILS FAC GP
10 95° 8202ft / 2500 m 1391ft 47.458939 8.537481 - - 3.0°
14 136° 10827ft / 3300 m 1402ft 47.482092 8.536075 108.3 136° 3.0°
16 154° 12139ft / 3700 m 1390ft 47.475714 8.535936 110.5 154° 3.0°
28 275° 8202ft / 2500 m 1416ft 47.4566 8.570453 109.75 275° 3.3°
32 316° 10827ft / 3300 m 1402ft 47.461292 8.564461 - - 3.0°
34 334° 12139ft / 3700 m 1388ft 47.449275 8.554142 110.75 334° 3.3°